createdAt,value
2024-05-09T00:03:33.684Z,13.20
2024-05-09T00:07:15.767Z,13.00
2024-05-09T00:10:57.950Z,12.90
2024-05-09T00:14:39.994Z,12.80
2024-05-09T00:18:22.214Z,12.70
2024-05-09T00:22:04.314Z,12.70
2024-05-09T00:25:46.290Z,12.60
2024-05-09T00:29:28.415Z,12.50
2024-05-09T00:33:11.485Z,12.40
2024-05-09T00:36:53.845Z,12.30
2024-05-09T00:40:40.975Z,12.20
2024-05-09T00:44:24.914Z,12.20
2024-05-09T00:48:09.375Z,12.20
2024-05-09T00:52:00.720Z,12.20
2024-05-09T00:55:43.484Z,12.20
2024-05-09T00:59:26.020Z,12.20
2024-05-09T01:03:12.988Z,12.20
2024-05-09T01:06:56.235Z,12.20
2024-05-09T01:10:39.128Z,12.10
2024-05-09T01:14:21.865Z,12.00
2024-05-09T01:18:09.857Z,12.00
2024-05-09T01:21:52.200Z,12.00
2024-05-09T01:25:34.222Z,11.90
2024-05-09T01:29:16.417Z,11.90
2024-05-09T01:32:58.598Z,11.80
2024-05-09T01:36:40.616Z,11.70
2024-05-09T01:40:29.273Z,11.60
2024-05-09T01:44:18.711Z,11.40
2024-05-09T01:48:01.460Z,11.40
2024-05-09T01:51:43.852Z,11.30
2024-05-09T01:55:26.022Z,11.20
2024-05-09T01:59:10.456Z,11.10
2024-05-09T02:02:52.565Z,11.10
2024-05-09T02:06:40.707Z,11.10
2024-05-09T02:10:26.599Z,11.10
2024-05-09T02:14:14.521Z,11.10
2024-05-09T02:17:56.752Z,11.10
2024-05-09T02:21:41.126Z,11.10
2024-05-09T02:25:24.390Z,11.10
2024-05-09T02:29:06.399Z,11.10
2024-05-09T02:32:48.544Z,11.00
2024-05-09T02:36:30.603Z,11.00
2024-05-09T02:40:14.904Z,11.00
2024-05-09T02:44:00.315Z,11.00
2024-05-09T02:47:42.480Z,11.00
2024-05-09T02:51:24.593Z,11.00
2024-05-09T02:55:06.716Z,11.00
2024-05-09T02:58:48.730Z,11.00
2024-05-09T03:02:31.961Z,11.00
2024-05-09T03:06:14.034Z,11.00
2024-05-09T03:09:56.007Z,11.00
2024-05-09T03:13:41.488Z,11.00
2024-05-09T03:17:24.106Z,11.00
2024-05-09T03:21:06.533Z,11.10
2024-05-09T03:24:48.519Z,11.10
2024-05-09T03:28:30.413Z,11.20
2024-05-09T03:32:12.430Z,11.20
2024-05-09T03:35:54.631Z,11.30
2024-05-09T03:39:36.579Z,11.30
2024-05-09T03:43:19.970Z,11.50
2024-05-09T03:47:02.127Z,11.50
2024-05-09T03:50:44.121Z,11.50
2024-05-09T03:54:27.626Z,11.50
2024-05-09T03:58:09.753Z,11.50
2024-05-09T04:01:51.840Z,11.50
2024-05-09T04:05:34.110Z,11.50
2024-05-09T04:09:16.703Z,11.50
2024-05-09T04:12:58.620Z,11.50
2024-05-09T04:16:40.560Z,11.50
2024-05-09T04:20:33.093Z,11.40
2024-05-09T04:24:20.191Z,11.40
2024-05-09T04:28:02.230Z,11.40
2024-05-09T04:31:44.398Z,11.30
2024-05-09T04:35:26.618Z,11.20
2024-05-09T04:39:08.644Z,11.10
2024-05-09T04:42:50.618Z,10.90
2024-05-09T04:46:32.530Z,10.80
2024-05-09T04:50:21.205Z,10.90
2024-05-09T04:54:22.141Z,10.90
2024-05-09T04:58:12.271Z,11.00
2024-05-09T05:01:54.380Z,11.20
2024-05-09T05:05:43.505Z,11.30
2024-05-09T05:09:26.595Z,11.50
2024-05-09T05:13:20.465Z,11.60
2024-05-09T05:17:03.648Z,11.70
2024-05-09T05:20:45.726Z,11.80
2024-05-09T05:24:27.836Z,12.00
2024-05-09T05:28:10.674Z,12.30
2024-05-09T05:31:52.909Z,12.90
2024-05-09T05:35:35.130Z,13.50
2024-05-09T05:39:17.199Z,13.90
2024-05-09T05:42:59.275Z,14.20
2024-05-09T05:46:41.444Z,15.10
2024-05-09T05:50:28.136Z,16.20
2024-05-09T05:54:17.266Z,17.20
2024-05-09T05:57:59.649Z,18.00
2024-05-09T06:01:41.582Z,18.80
2024-05-09T06:05:24.766Z,19.70
2024-05-09T06:09:08.554Z,20.40
2024-05-09T06:12:50.633Z,21.20
2024-05-09T06:16:32.593Z,21.70
2024-05-09T06:20:20.624Z,22.20
2024-05-09T06:24:09.102Z,22.70
2024-05-09T06:27:51.161Z,23.20
2024-05-09T06:31:33.089Z,23.70
2024-05-09T06:35:15.907Z,23.90
2024-05-09T06:38:57.823Z,24.30
2024-05-09T06:42:39.904Z,24.70
2024-05-09T06:46:21.901Z,24.80
2024-05-09T06:50:08.220Z,25.10
2024-05-09T06:53:52.494Z,25.40
2024-05-09T06:57:34.571Z,25.80
2024-05-09T07:01:16.489Z,26.30
2024-05-09T07:04:58.541Z,26.90
2024-05-09T07:08:41.324Z,27.50
2024-05-09T07:12:24.779Z,27.90
2024-05-09T07:16:07.065Z,28.10
2024-05-09T07:19:50.000Z,28.40
2024-05-09T07:23:32.336Z,28.80
2024-05-09T07:27:14.353Z,29.30
2024-05-09T07:30:56.222Z,29.70
2024-05-09T07:34:38.171Z,29.70
2024-05-09T07:38:20.313Z,30.00
2024-05-09T07:42:02.368Z,30.20
2024-05-09T07:45:52.286Z,30.30
2024-05-09T07:53:39.034Z,30.10
2024-05-09T07:57:23.481Z,29.80
2024-05-09T08:01:05.855Z,29.90
2024-05-09T08:04:48.191Z,30.10
2024-05-09T08:08:30.161Z,30.40
2024-05-09T08:12:15.714Z,30.30
2024-05-09T08:15:57.706Z,30.40
2024-05-09T08:19:40.958Z,30.60
2024-05-09T08:23:23.899Z,30.80
2024-05-09T08:27:06.125Z,31.40
2024-05-09T08:30:48.435Z,32.00
2024-05-09T08:34:30.547Z,32.20
2024-05-09T08:38:12.549Z,31.80
2024-05-09T08:41:54.628Z,31.70
2024-05-09T08:45:42.681Z,31.50
2024-05-09T08:49:26.763Z,31.30
2024-05-09T08:53:09.187Z,31.40
2024-05-09T08:56:52.112Z,31.80
2024-05-09T09:00:37.415Z,32.30
2024-05-09T09:04:21.948Z,32.70
2024-05-09T09:08:08.037Z,33.00
2024-05-09T09:11:50.144Z,33.50
2024-05-09T09:15:32.358Z,33.90
2024-05-09T09:19:14.887Z,33.60
2024-05-09T09:22:58.810Z,33.50
2024-05-09T09:26:40.900Z,33.80
2024-05-09T09:30:34.054Z,33.90
2024-05-09T09:34:19.135Z,33.90
2024-05-09T09:38:05.947Z,33.80
2024-05-09T09:41:48.710Z,33.50
2024-05-09T09:45:32.555Z,32.90
2024-05-09T09:49:15.971Z,32.50
2024-05-09T09:53:01.185Z,32.70
2024-05-09T09:56:45.577Z,33.40
2024-05-09T10:00:32.753Z,34.10
2024-05-09T10:04:18.582Z,34.50
2024-05-09T10:08:06.683Z,34.90
2024-05-09T10:11:52.078Z,34.50
2024-05-09T10:15:50.721Z,34.20
2024-05-09T10:19:34.245Z,34.70
2024-05-09T10:23:43.811Z,34.70
2024-05-09T10:27:29.712Z,34.20
2024-05-09T10:31:14.926Z,34.10
2024-05-09T10:35:06.316Z,34.50
2024-05-09T10:38:53.615Z,34.80
2024-05-09T10:42:38.945Z,35.10
2024-05-09T10:46:21.206Z,35.60
2024-05-09T10:50:07.805Z,36.10
2024-05-09T10:53:52.682Z,36.20
2024-05-09T10:57:41.211Z,36.20
2024-05-09T11:01:23.719Z,35.90
2024-05-09T11:05:06.255Z,35.90
2024-05-09T11:08:48.845Z,35.50
2024-05-09T11:12:30.846Z,35.30
2024-05-09T11:16:21.294Z,35.30
2024-05-09T11:20:08.057Z,35.70
2024-05-09T11:23:52.804Z,35.80
2024-05-09T11:27:35.907Z,35.70
2024-05-09T11:31:18.267Z,35.30
2024-05-09T11:35:00.430Z,34.60
2024-05-09T11:38:42.465Z,35.20
2024-05-09T11:42:24.371Z,36.10
2024-05-09T11:46:06.476Z,37.00
2024-05-09T11:49:48.563Z,37.10
2024-05-09T11:53:30.677Z,36.50
2024-05-09T11:57:12.742Z,35.90
2024-05-09T12:00:54.796Z,35.70
2024-05-09T12:04:36.859Z,35.30
2024-05-09T12:08:19.381Z,35.20
2024-05-09T12:12:01.319Z,35.20
2024-05-09T12:15:43.298Z,35.50
2024-05-09T12:19:25.587Z,35.40
2024-05-09T12:23:10.018Z,35.70
2024-05-09T12:26:52.754Z,36.40
2024-05-09T12:30:38.784Z,37.10
2024-05-09T12:34:22.657Z,37.50
2024-05-09T12:38:05.052Z,37.70
2024-05-09T12:41:47.173Z,37.70
2024-05-09T12:45:29.150Z,37.70
2024-05-09T12:49:11.774Z,37.50
2024-05-09T12:52:54.666Z,37.40
2024-05-09T12:56:36.653Z,37.10
2024-05-09T13:00:24.113Z,36.00
2024-05-09T13:04:13.271Z,34.20
2024-05-09T13:07:56.922Z,32.70
2024-05-09T13:11:39.204Z,31.70
2024-05-09T13:15:21.234Z,30.80
2024-05-09T13:19:03.193Z,30.20
2024-05-09T13:22:46.062Z,29.80
2024-05-09T13:26:28.066Z,29.50
2024-05-09T13:30:17.614Z,29.20
2024-05-09T13:34:03.848Z,28.90
2024-05-09T13:37:46.127Z,28.50
2024-05-09T13:41:28.060Z,28.20
2024-05-09T13:45:09.969Z,28.00
2024-05-09T13:48:51.934Z,27.80
2024-05-09T13:52:33.878Z,27.20
2024-05-09T13:56:15.855Z,26.60
2024-05-09T13:59:57.983Z,26.20
2024-05-09T14:03:40.163Z,25.90
2024-05-09T14:07:22.271Z,25.70
2024-05-09T14:11:04.508Z,25.40
2024-05-09T14:14:46.671Z,25.20
2024-05-09T14:18:28.804Z,25.00
2024-05-09T14:22:11.143Z,24.90
2024-05-09T14:25:53.557Z,24.70
2024-05-09T14:29:35.720Z,24.40
2024-05-09T14:33:23.520Z,24.40
2024-05-09T14:37:05.740Z,24.30
2024-05-09T14:40:47.770Z,24.40
2024-05-09T14:44:29.825Z,24.30
2024-05-09T14:48:14.765Z,24.20
2024-05-09T14:51:57.079Z,24.20
2024-05-09T14:55:41.201Z,24.20
2024-05-09T14:59:24.395Z,24.20
2024-05-09T15:03:06.730Z,24.20
2024-05-09T15:06:48.857Z,24.30
2024-05-09T15:10:34.873Z,24.40
2024-05-09T15:14:18.483Z,24.40
2024-05-09T15:18:00.816Z,24.50
2024-05-09T15:21:42.996Z,24.50
2024-05-09T15:25:25.078Z,24.70
2024-05-09T15:29:07.172Z,25.00
2024-05-09T15:32:49.191Z,25.30
2024-05-09T15:36:31.184Z,25.50
2024-05-09T15:40:18.510Z,25.60
2024-05-09T15:44:07.909Z,25.70
2024-05-09T15:47:50.923Z,25.70
2024-05-09T15:51:34.874Z,25.70
2024-05-09T15:55:16.941Z,25.70
2024-05-09T15:58:59.389Z,25.50
2024-05-09T16:02:41.402Z,25.40
2024-05-09T16:06:23.659Z,25.30
2024-05-09T16:10:07.034Z,25.20
2024-05-09T16:13:49.239Z,25.20
2024-05-09T16:17:31.554Z,25.00
2024-05-09T16:21:13.489Z,24.90
2024-05-09T16:24:55.473Z,24.80
2024-05-09T16:28:37.551Z,24.70
2024-05-09T16:32:19.549Z,24.70
2024-05-09T16:36:01.650Z,24.70
2024-05-09T16:39:43.619Z,24.70
2024-05-09T16:43:26.627Z,24.70
2024-05-09T16:47:09.520Z,24.60
2024-05-09T16:50:51.481Z,24.50
2024-05-09T16:54:33.496Z,24.50
2024-05-09T16:58:15.574Z,24.50
2024-05-09T17:01:57.587Z,24.60
2024-05-09T17:05:40.499Z,24.50
2024-05-09T17:09:22.677Z,24.60
2024-05-09T17:13:07.234Z,24.70
2024-05-09T17:16:50.216Z,24.70
2024-05-09T17:20:35.381Z,24.70
2024-05-09T17:24:19.197Z,24.70
2024-05-09T17:28:06.920Z,24.70
2024-05-09T17:31:49.744Z,24.70
2024-05-09T17:35:32.179Z,24.60
2024-05-09T17:39:14.394Z,24.50
2024-05-09T17:42:56.383Z,24.30
2024-05-09T17:46:38.637Z,24.10
2024-05-09T17:50:27.478Z,23.90
2024-05-09T17:54:15.878Z,23.70
2024-05-09T17:57:58.091Z,23.60
2024-05-09T18:01:40.338Z,23.40
2024-05-09T18:05:22.538Z,23.20
2024-05-09T18:09:04.562Z,23.20
2024-05-09T18:12:47.168Z,23.00
2024-05-09T18:16:29.216Z,23.00
2024-05-09T18:20:17.301Z,22.90
2024-05-09T18:24:06.005Z,22.70
2024-05-09T18:27:48.171Z,22.70
2024-05-09T18:31:30.300Z,22.60
2024-05-09T18:35:12.560Z,22.50
2024-05-09T18:38:54.668Z,22.40
2024-05-09T18:42:36.763Z,22.20
2024-05-09T18:46:21.328Z,22.20
2024-05-09T18:50:04.776Z,22.00
2024-05-09T18:53:51.654Z,21.90
2024-05-09T18:57:33.600Z,21.80
2024-05-09T19:01:15.791Z,21.70
2024-05-09T19:04:58.000Z,21.50
2024-05-09T19:08:42.899Z,21.40
2024-05-09T19:12:24.896Z,21.20
2024-05-09T19:16:07.159Z,21.20
2024-05-09T19:19:49.359Z,21.00
2024-05-09T19:23:35.281Z,20.90
2024-05-09T19:27:19.942Z,20.80
2024-05-09T19:31:01.932Z,20.70
2024-05-09T19:34:43.974Z,20.60
2024-05-09T19:38:25.987Z,20.50
2024-05-09T19:42:08.107Z,20.20
2024-05-09T19:45:50.148Z,20.10
2024-05-09T19:49:32.166Z,20.00
2024-05-09T19:53:14.704Z,19.80
2024-05-09T19:56:56.921Z,19.70
2024-05-09T20:00:41.478Z,19.60
2024-05-09T20:04:25.517Z,19.40
2024-05-09T20:08:10.983Z,19.30
2024-05-09T20:11:53.134Z,19.20
2024-05-09T20:15:36.841Z,19.00
2024-05-09T20:19:19.235Z,18.90
2024-05-09T20:23:01.220Z,18.80
2024-05-09T20:26:43.209Z,18.60
2024-05-09T20:30:31.510Z,18.60
2024-05-09T20:34:15.252Z,18.40
2024-05-09T20:37:57.241Z,18.30
2024-05-09T20:41:45.563Z,18.10
2024-05-09T20:45:27.471Z,18.00
2024-05-09T20:49:09.455Z,17.80
2024-05-09T20:52:51.601Z,17.70
2024-05-09T20:56:34.858Z,17.60
2024-05-09T21:00:19.276Z,17.50
2024-05-09T21:04:07.961Z,17.50
2024-05-09T21:07:50.140Z,17.40
2024-05-09T21:11:32.130Z,17.40
2024-05-09T21:15:14.120Z,17.30
2024-05-09T21:18:56.079Z,17.30
2024-05-09T21:22:38.279Z,17.30
2024-05-09T21:26:23.131Z,17.20
2024-05-09T21:30:07.845Z,17.10
2024-05-09T21:33:52.395Z,17.00
2024-05-09T21:37:34.485Z,16.90
2024-05-09T21:41:16.487Z,16.80
2024-05-09T21:44:58.398Z,16.70
2024-05-09T21:48:40.526Z,16.60
2024-05-09T21:52:22.693Z,16.50
2024-05-09T21:56:04.817Z,16.40
2024-05-09T21:59:47.487Z,16.20
2024-05-09T22:03:29.586Z,16.20
2024-05-09T22:07:11.872Z,16.10
2024-05-09T22:10:56.761Z,16.00
2024-05-09T22:14:38.928Z,15.90
2024-05-09T22:18:20.932Z,15.90
2024-05-09T22:22:03.089Z,15.70
2024-05-09T22:25:45.066Z,15.70
2024-05-09T22:29:27.080Z,15.70
2024-05-09T22:33:10.932Z,15.60
2024-05-09T22:36:54.083Z,15.60
2024-05-09T22:40:45.489Z,15.50
2024-05-09T22:44:30.858Z,15.40
2024-05-09T22:48:13.003Z,15.30
2024-05-09T22:51:55.084Z,15.20
2024-05-09T22:55:37.159Z,15.20
2024-05-09T22:59:19.166Z,15.10
2024-05-09T23:03:01.939Z,15.00
2024-05-09T23:06:44.155Z,14.90
2024-05-09T23:10:32.478Z,14.90
2024-05-09T23:14:21.516Z,14.90
2024-05-09T23:18:03.696Z,14.80
2024-05-09T23:21:45.806Z,14.80
2024-05-09T23:25:28.091Z,14.70
2024-05-09T23:29:10.177Z,14.70
2024-05-09T23:32:52.295Z,14.60
2024-05-09T23:36:34.294Z,14.50
2024-05-09T23:40:19.017Z,14.40
2024-05-09T23:44:04.992Z,14.30
2024-05-09T23:47:47.734Z,14.30
2024-05-09T23:51:29.786Z,14.20
2024-05-09T23:55:11.692Z,14.20
2024-05-09T23:58:53.597Z,14.10
